createdAt,value
2017-04-13T00:00:57.229Z,29.6
2017-04-13T00:01:57.372Z,29.5
2017-04-13T00:02:57.464Z,29.5
2017-04-13T00:03:59.218Z,29.5
2017-04-13T00:04:57.497Z,29.5
2017-04-13T00:05:58.987Z,29.5
2017-04-13T00:06:58.966Z,29.5
2017-04-13T00:07:59.167Z,29.5
2017-04-13T00:08:57.569Z,29.5
2017-04-13T00:09:59.377Z,29.5
2017-04-13T00:10:59.298Z,29.6
2017-04-13T00:11:59.354Z,29.5
2017-04-13T00:12:57.683Z,29.5
2017-04-13T00:13:59.351Z,29.5
2017-04-13T00:14:57.851Z,29.6
2017-04-13T00:15:59.812Z,29.5
2017-04-13T00:16:59.647Z,29.5
2017-04-13T00:17:59.681Z,29.6
2017-04-13T00:18:58.158Z,29.6
2017-04-13T00:19:59.677Z,29.5
2017-04-13T00:20:58.342Z,29.6
2017-04-13T00:21:58.279Z,29.6
2017-04-13T00:23:00.056Z,29.5
2017-04-13T00:23:58.357Z,29.5
2017-04-13T00:25:00.158Z,29.5
2017-04-13T00:25:58.475Z,29.5
2017-04-13T00:27:00.284Z,29.5
2017-04-13T00:28:00.359Z,29.5
2017-04-13T00:29:00.343Z,29.5
2017-04-13T00:30:00.341Z,29.5
2017-04-13T00:31:00.402Z,29.5
2017-04-13T00:32:00.546Z,29.5
2017-04-13T00:32:58.923Z,29.5
2017-04-13T00:34:00.526Z,29.5
2017-04-13T00:35:00.642Z,29.5
2017-04-13T00:36:00.775Z,29.5
2017-04-13T00:36:59.114Z,29.5
2017-04-13T00:38:00.904Z,29.5
2017-04-13T00:39:02.869Z,29.5
2017-04-13T00:40:04.143Z,29.5
2017-04-13T00:41:01.062Z,29.5
2017-04-13T00:42:01.031Z,29.5
2017-04-13T00:43:01.056Z,29.5
2017-04-13T00:44:01.227Z,29.5
2017-04-13T00:44:59.766Z,29.4
2017-04-13T00:45:59.783Z,29.5
2017-04-13T00:47:01.318Z,29.5
2017-04-13T00:47:59.817Z,29.5
2017-04-13T00:48:59.861Z,29.4
2017-04-13T00:50:01.411Z,29.5
2017-04-13T00:50:59.786Z,29.5
2017-04-13T00:52:01.428Z,29.5
2017-04-13T00:53:01.487Z,29.5
2017-04-13T00:54:01.449Z,29.5
2017-04-13T00:55:01.598Z,29.5
2017-04-13T00:56:01.641Z,29.5
2017-04-13T00:57:00.023Z,29.5
2017-04-13T00:58:00.049Z,29.4
2017-04-13T00:59:01.752Z,29.5
2017-04-13T01:00:01.736Z,29.5
2017-04-13T01:01:01.890Z,29.5
2017-04-13T01:02:01.864Z,29.5
2017-04-13T01:03:01.913Z,29.5
2017-04-13T01:04:00.487Z,29.5
2017-04-13T01:05:00.498Z,29.5
2017-04-13T01:06:02.149Z,29.5
2017-04-13T01:07:00.643Z,29.5
2017-04-13T01:08:02.201Z,29.5
2017-04-13T01:09:00.604Z,29.5
2017-04-13T01:10:00.795Z,29.5
2017-04-13T01:11:00.651Z,29.5
2017-04-13T01:12:02.237Z,29.5
2017-04-13T01:13:00.656Z,29.4
2017-04-13T01:14:02.345Z,29.5
2017-04-13T01:15:02.340Z,29.5
2017-04-13T01:16:00.890Z,29.5
2017-04-13T01:17:02.426Z,29.5
2017-04-13T01:18:02.475Z,29.5
2017-04-13T01:19:02.464Z,29.5
2017-04-13T01:20:02.480Z,29.5
2017-04-13T01:21:02.829Z,29.5
2017-04-13T01:22:02.665Z,29.5
2017-04-13T01:23:02.728Z,29.5
2017-04-13T01:24:01.073Z,29.5
2017-04-13T01:25:01.205Z,29.5
2017-04-13T01:26:01.193Z,29.5
2017-04-13T01:27:02.789Z,29.5
2017-04-13T01:28:02.918Z,29.5
2017-04-13T01:29:03.024Z,29.5
2017-04-13T01:30:03.091Z,29.5
2017-04-13T01:31:03.172Z,29.4
2017-04-13T01:32:01.516Z,29.5
2017-04-13T01:33:03.302Z,29.5
2017-04-13T01:34:01.852Z,29.5
2017-04-13T01:35:03.693Z,29.5
2017-04-13T01:36:01.718Z,29.4
2017-04-13T01:37:01.762Z,29.5
2017-04-13T01:38:01.968Z,29.5
2017-04-13T01:39:03.472Z,29.4
2017-04-13T01:40:02.065Z,29.4
2017-04-13T01:41:03.520Z,29.4
2017-04-13T01:42:02.020Z,29.4
2017-04-13T01:43:03.705Z,29.4
2017-04-13T01:44:03.741Z,29.4
2017-04-13T01:45:03.878Z,29.4
2017-04-13T01:46:03.958Z,29.4
2017-04-13T01:47:03.903Z,29.4
2017-04-13T01:48:03.982Z,29.4
2017-04-13T01:49:04.166Z,29.5
2017-04-13T01:50:04.238Z,29.5
2017-04-13T01:51:04.161Z,29.4
2017-04-13T01:52:02.642Z,29.5
2017-04-13T01:53:02.837Z,29.5
2017-04-13T01:54:04.495Z,29.4
2017-04-13T01:55:04.469Z,29.5
2017-04-13T01:56:04.585Z,29.5
2017-04-13T01:57:03.048Z,29.4
2017-04-13T01:58:03.137Z,29.5
2017-04-13T01:59:03.236Z,29.5
2017-04-13T02:00:04.761Z,29.5
2017-04-13T02:01:04.789Z,29.5
2017-04-13T02:02:03.191Z,29.4
2017-04-13T02:03:03.257Z,29.5
2017-04-13T02:04:03.379Z,29.5
2017-04-13T02:05:04.895Z,29.5
2017-04-13T02:06:04.920Z,29.5
2017-04-13T02:07:03.484Z,29.5
2017-04-13T02:08:03.560Z,29.5
2017-04-13T02:09:05.204Z,29.4
2017-04-13T02:10:05.138Z,29.5
2017-04-13T02:11:03.727Z,29.5
2017-04-13T02:12:03.736Z,29.5
2017-04-13T02:13:03.751Z,29.5
2017-04-13T02:14:03.861Z,29.5
2017-04-13T02:15:03.792Z,29.5
2017-04-13T02:16:05.490Z,29.4
2017-04-13T02:17:04.012Z,29.4
2017-04-13T02:18:03.893Z,29.4
2017-04-13T02:19:05.576Z,29.4
2017-04-13T02:20:04.105Z,29.4
2017-04-13T02:21:05.639Z,29.4
2017-04-13T02:22:05.655Z,29.4
2017-04-13T02:23:04.063Z,29.4
2017-04-13T02:24:04.153Z,29.4
2017-04-13T02:25:05.822Z,29.4
2017-04-13T02:26:06.057Z,29.4
2017-04-13T02:27:05.971Z,29.4
2017-04-13T02:28:04.391Z,29.4
2017-04-13T02:29:06.198Z,29.4
2017-04-13T02:30:06.117Z,29.4
2017-04-13T02:31:06.377Z,29.4
2017-04-13T02:32:04.860Z,29.4
2017-04-13T02:33:06.551Z,29.4
2017-04-13T02:34:06.606Z,29.4
2017-04-13T02:35:04.967Z,29.4
2017-04-13T02:36:06.578Z,29.4
2017-04-13T02:37:06.794Z,29.4
2017-04-13T02:38:05.330Z,29.4
2017-04-13T02:39:06.914Z,29.4
2017-04-13T02:40:06.845Z,29.4
2017-04-13T02:41:07.521Z,29.4
2017-04-13T02:42:07.070Z,29.4
2017-04-13T02:43:05.574Z,29.4
2017-04-13T02:44:05.832Z,29.4
2017-04-13T02:45:05.590Z,29.4
2017-04-13T02:46:07.256Z,29.4
2017-04-13T02:47:07.429Z,29.4
2017-04-13T02:48:05.922Z,29.4
2017-04-13T02:49:07.507Z,29.4
2017-04-13T02:50:07.678Z,29.4
2017-04-13T02:51:06.013Z,29.4
2017-04-13T02:52:06.021Z,29.4
2017-04-13T02:53:05.981Z,29.4
2017-04-13T02:54:08.185Z,29.4
2017-04-13T02:55:06.197Z,29.4
2017-04-13T02:58:28.176Z,29.3
2017-04-13T02:59:28.022Z,29.3
2017-04-13T03:00:28.092Z,29.3
2017-04-13T03:01:28.347Z,29.3
2017-04-13T03:02:28.159Z,29.3
2017-04-13T03:03:28.360Z,29.3
2017-04-13T03:04:28.441Z,29.4
2017-04-13T03:05:29.911Z,29.4
2017-04-13T03:06:33.943Z,29.4
2017-04-13T03:07:30.148Z,29.4
2017-04-13T03:08:30.173Z,29.4
2017-04-13T03:09:28.679Z,29.4
2017-04-13T03:10:28.765Z,29.4
2017-04-13T03:11:28.664Z,29.4
2017-04-13T03:12:30.449Z,29.3
2017-04-13T03:13:28.812Z,29.4
2017-04-13T03:14:29.004Z,29.4
2017-04-13T03:15:30.582Z,29.4
2017-04-13T03:16:29.234Z,29.3
2017-04-13T03:17:30.555Z,29.4
2017-04-13T03:18:29.062Z,29.4
2017-04-13T03:19:29.227Z,29.4
2017-04-13T03:20:30.079Z,29.4
2017-04-13T03:21:31.751Z,29.4
2017-04-13T03:22:29.304Z,29.4
2017-04-13T03:23:29.520Z,29.4
2017-04-13T03:24:29.429Z,29.4
2017-04-13T03:25:29.525Z,29.4
2017-04-13T03:26:29.572Z,29.3
2017-04-13T03:27:31.235Z,29.4
2017-04-13T03:28:31.176Z,29.4
2017-04-13T03:29:31.200Z,29.4
2017-04-13T03:30:31.278Z,29.4
2017-04-13T03:31:29.756Z,29.4
2017-04-13T03:32:29.970Z,29.4
2017-04-13T03:33:31.531Z,29.3
2017-04-13T03:34:31.646Z,29.4
2017-04-13T03:35:31.619Z,29.4
2017-04-13T03:36:30.187Z,29.4
2017-04-13T03:37:31.729Z,29.3
2017-04-13T03:38:30.383Z,29.4
2017-04-13T03:39:30.246Z,29.4
2017-04-13T03:40:30.491Z,29.4
2017-04-13T03:41:30.453Z,29.4
2017-04-13T03:42:30.513Z,29.4
2017-04-13T03:43:31.998Z,29.4
2017-04-13T03:44:30.431Z,29.4
2017-04-13T03:45:30.651Z,29.4
2017-04-13T03:46:32.184Z,29.4
2017-04-13T03:47:30.696Z,29.4
2017-04-13T03:48:32.378Z,29.4
2017-04-13T03:49:32.512Z,29.4
2017-04-13T03:50:30.990Z,29.4
2017-04-13T03:51:32.580Z,29.4
2017-04-13T03:52:32.661Z,29.4
2017-04-13T03:53:32.722Z,29.4
2017-04-13T03:54:32.792Z,29.4
2017-04-13T03:55:32.744Z,29.4
2017-04-13T03:56:31.326Z,29.4
2017-04-13T03:57:32.841Z,29.4
2017-04-13T03:58:31.403Z,29.4
2017-04-13T03:59:32.980Z,29.3
2017-04-13T04:00:31.498Z,29.4
2017-04-13T04:01:32.601Z,29.4
2017-04-13T04:02:33.255Z,29.4
2017-04-13T04:03:33.316Z,29.3
2017-04-13T04:04:33.289Z,29.4
2017-04-13T04:05:33.399Z,29.4
2017-04-13T04:06:31.714Z,29.4
2017-04-13T04:07:31.735Z,29.4
2017-04-13T04:08:31.794Z,29.4
2017-04-13T04:09:31.866Z,29.4
2017-04-13T04:10:31.955Z,29.4
2017-04-13T04:11:33.650Z,29.3
2017-04-13T04:12:33.682Z,29.4
2017-04-13T04:13:33.612Z,29.4
2017-04-13T04:14:32.287Z,29.3
2017-04-13T04:15:33.705Z,29.4
2017-04-13T04:16:32.333Z,29.4
2017-04-13T04:17:32.242Z,29.4
2017-04-13T04:18:32.376Z,29.4
2017-04-13T04:19:34.006Z,29.4
2017-04-13T04:20:32.454Z,29.4
2017-04-13T04:21:32.357Z,29.4
2017-04-13T04:22:34.014Z,29.4
2017-04-13T04:23:34.109Z,29.3
2017-04-13T04:24:34.162Z,29.4
2017-04-13T04:25:32.543Z,29.4
2017-04-13T04:26:34.205Z,29.4
2017-04-13T04:27:32.696Z,29.4
2017-04-13T04:28:34.274Z,29.4
2017-04-13T04:29:34.537Z,29.3
2017-04-13T04:30:34.563Z,29.3
2017-04-13T04:31:32.868Z,29.3
2017-04-13T04:32:34.536Z,29.3
2017-04-13T04:33:34.769Z,29.3
2017-04-13T04:34:34.680Z,29.3
2017-04-13T04:35:33.268Z,29.3
2017-04-13T04:36:33.349Z,29.3
2017-04-13T04:37:34.871Z,29.3
2017-04-13T04:38:33.408Z,29.3
2017-04-13T04:39:33.419Z,29.3
2017-04-13T04:40:33.546Z,29.3
2017-04-13T04:41:35.173Z,29.3
2017-04-13T04:42:33.786Z,29.4
2017-04-13T04:43:36.809Z,29.4
2017-04-13T04:44:38.138Z,29.5
2017-04-13T04:45:39.617Z,29.5
2017-04-13T04:46:37.601Z,29.5
2017-04-13T04:47:44.581Z,29.5
2017-04-13T04:48:36.455Z,29.5
2017-04-13T04:49:38.627Z,29.5
2017-04-13T04:50:34.996Z,29.5
2017-04-13T04:51:38.065Z,29.5
2017-04-13T04:52:34.124Z,29.6
2017-04-13T04:53:37.313Z,29.6
2017-04-13T04:54:34.196Z,29.6
2017-04-13T04:55:34.099Z,29.6
2017-04-13T04:56:34.334Z,29.6
2017-04-13T04:57:35.904Z,29.6
2017-04-13T04:58:35.960Z,29.6
2017-04-13T04:59:35.707Z,29.6
2017-04-13T05:00:35.861Z,29.5
2017-04-13T05:01:34.428Z,29.5
2017-04-13T05:02:35.211Z,29.5
2017-04-13T05:03:34.436Z,29.5
2017-04-13T05:04:37.405Z,29.6
2017-04-13T05:05:35.007Z,29.6
2017-04-13T05:06:34.440Z,29.6
2017-04-13T05:07:34.816Z,29.6
2017-04-13T05:08:36.346Z,29.6
2017-04-13T05:09:36.478Z,29.6
2017-04-13T05:16:37.072Z,29.6
2017-04-13T05:17:35.232Z,29.6
2017-04-13T05:18:35.387Z,29.6
2017-04-13T05:19:35.472Z,29.6
2017-04-13T05:20:37.274Z,29.6
2017-04-13T05:21:35.477Z,29.6
2017-04-13T05:22:35.577Z,29.7
2017-04-13T05:23:37.190Z,29.7
2017-04-13T05:24:37.239Z,29.7
2017-04-13T05:25:37.168Z,29.7
2017-04-13T05:26:38.044Z,29.7
2017-04-13T05:27:35.805Z,29.7
2017-04-13T05:28:35.882Z,29.8
2017-04-13T05:29:35.891Z,29.8
2017-04-13T05:30:37.427Z,29.8
2017-04-13T05:31:35.906Z,29.8
2017-04-13T05:32:38.993Z,29.8
2017-04-13T05:33:37.674Z,29.8
2017-04-13T05:34:37.684Z,29.8
2017-04-13T05:35:37.876Z,29.9
2017-04-13T05:36:37.922Z,29.9
2017-04-13T05:37:36.283Z,29.9
2017-04-13T05:38:38.574Z,29.9
2017-04-13T05:39:36.469Z,29.9
2017-04-13T05:40:38.099Z,29.9
2017-04-13T05:41:37.055Z,29.9
2017-04-13T05:42:40.114Z,30
2017-04-13T05:43:37.163Z,30
2017-04-13T05:44:36.615Z,30
2017-04-13T05:45:38.262Z,30
2017-04-13T05:46:38.549Z,30
2017-04-13T05:47:38.693Z,30
2017-04-13T05:48:38.123Z,30
2017-04-13T05:49:39.044Z,30
2017-04-13T05:50:36.917Z,30
2017-04-13T05:51:40.416Z,30.1
2017-04-13T05:52:37.109Z,30.1
2017-04-13T05:53:38.736Z,30.1
2017-04-13T05:54:37.067Z,30.1
2017-04-13T05:55:40.325Z,30.1
2017-04-13T05:56:37.308Z,30.1
2017-04-13T05:57:38.760Z,30.1
2017-04-13T05:58:38.960Z,30.1
2017-04-13T05:59:38.875Z,30.1
2017-04-13T06:00:37.492Z,30.1
2017-04-13T06:01:40.323Z,30.1
2017-04-13T06:02:37.452Z,30.1
2017-04-13T06:03:39.191Z,30.1
2017-04-13T06:04:37.949Z,30.2
2017-04-13T06:05:39.874Z,30.2
2017-04-13T06:06:39.335Z,30.2
2017-04-13T06:07:37.888Z,30.2
2017-04-13T06:08:39.381Z,30.2
2017-04-13T06:09:39.603Z,30.2
2017-04-13T06:10:38.266Z,30.3
2017-04-13T06:11:38.155Z,30.3
2017-04-13T06:12:39.582Z,30.3
2017-04-13T06:13:38.215Z,30.3
2017-04-13T06:14:40.177Z,30.3
2017-04-13T06:15:38.265Z,30.3
2017-04-13T06:16:38.455Z,30.3
2017-04-13T06:17:39.852Z,30.4
2017-04-13T06:18:38.463Z,30.3
2017-04-13T06:19:38.503Z,30.4
2017-04-13T06:20:38.459Z,30.4
2017-04-13T06:21:38.614Z,30.4
2017-04-13T06:22:39.048Z,30.4
2017-04-13T06:23:40.729Z,30.4
2017-04-13T06:24:40.405Z,30.4
2017-04-13T06:25:38.786Z,30.4
2017-04-13T06:26:40.347Z,30.5
2017-04-13T06:27:46.951Z,30.4
2017-04-13T06:28:40.951Z,30.5
2017-04-13T06:29:41.248Z,30.5
2017-04-13T06:30:42.086Z,30.5
2017-04-13T06:31:40.746Z,30.5
2017-04-13T06:32:39.289Z,30.5
2017-04-13T06:33:40.846Z,30.5
2017-04-13T06:34:42.558Z,30.5
2017-04-13T06:35:39.398Z,30.6
2017-04-13T06:36:41.433Z,30.6
2017-04-13T06:37:41.821Z,30.6
2017-04-13T06:38:39.576Z,30.7
2017-04-13T06:39:41.774Z,30.7
2017-04-13T06:40:40.677Z,30.7
2017-04-13T06:41:42.519Z,30.7
2017-04-13T06:42:39.894Z,30.8
2017-04-13T06:43:41.285Z,30.8
2017-04-13T06:44:43.200Z,30.8
2017-04-13T06:45:41.412Z,30.8
2017-04-13T06:46:43.712Z,30.8
2017-04-13T06:47:42.211Z,30.9
2017-04-13T06:48:41.718Z,30.9
2017-04-13T06:49:40.072Z,30.9
2017-04-13T06:50:39.991Z,30.9
2017-04-13T06:51:41.573Z,30.9
2017-04-13T06:52:51.261Z,30.8
2017-04-13T06:53:41.550Z,30.8
2017-04-13T06:54:41.731Z,30.8
2017-04-13T06:55:41.103Z,30.8
2017-04-13T06:56:40.834Z,30.8
2017-04-13T06:57:41.899Z,30.8
2017-04-13T06:58:43.516Z,30.9
2017-04-13T06:59:46.519Z,30.9
2017-04-13T07:00:44.181Z,30.8
2017-04-13T07:01:42.794Z,30.9
2017-04-13T07:02:41.673Z,30.8
2017-04-13T07:03:43.043Z,30.8
2017-04-13T07:04:40.944Z,30.8
2017-04-13T07:05:42.848Z,30.8
2017-04-13T07:06:43.104Z,30.8
2017-04-13T07:07:41.000Z,30.9
2017-04-13T07:08:41.639Z,30.9
2017-04-13T07:09:42.704Z,31
2017-04-13T07:10:43.512Z,31
2017-04-13T07:11:41.127Z,31
2017-04-13T07:12:41.787Z,31
2017-04-13T07:13:42.801Z,31
2017-04-13T07:14:42.656Z,31
2017-04-13T07:16:00.112Z,31
2017-04-13T07:16:42.142Z,31
2017-04-13T07:17:41.484Z,31
2017-04-13T07:18:41.550Z,31
2017-04-13T07:19:45.050Z,31
2017-04-13T07:20:52.110Z,31.1
2017-04-13T07:21:44.678Z,31.1
2017-04-13T07:22:42.481Z,31.1
2017-04-13T07:23:46.254Z,31
2017-04-13T07:24:43.319Z,31
2017-04-13T07:25:45.964Z,31
2017-04-13T07:26:42.921Z,31
2017-04-13T07:27:43.587Z,31
2017-04-13T07:28:44.539Z,31
2017-04-13T07:29:46.761Z,31
2017-04-13T07:30:43.814Z,31
2017-04-13T07:31:47.025Z,31
2017-04-13T07:32:43.798Z,31.1
2017-04-13T07:33:51.307Z,31.1
2017-04-13T07:34:45.029Z,31.1
2017-04-13T07:35:44.000Z,31.1
2017-04-13T07:36:43.891Z,31.1
2017-04-13T07:37:46.623Z,31.1
2017-04-13T07:38:44.155Z,31.2
2017-04-13T07:39:45.412Z,31.2
2017-04-13T07:40:45.678Z,31.2
2017-04-13T07:41:48.684Z,31.3
2017-04-13T07:42:48.878Z,31.3
2017-04-13T07:43:45.174Z,31.3
2017-04-13T07:44:45.866Z,31.3
2017-04-13T07:45:49.906Z,31.4
2017-04-13T07:46:47.550Z,31.4
2017-04-13T07:47:46.429Z,31.4
2017-04-13T07:48:46.628Z,31.5
2017-04-13T07:49:43.485Z,31.5
2017-04-13T07:50:48.930Z,31.5
2017-04-13T07:51:47.084Z,31.5
2017-04-13T07:52:45.679Z,31.6
2017-04-13T07:53:46.415Z,31.6
2017-04-13T07:54:47.616Z,31.6
2017-04-13T07:55:46.256Z,31.6
2017-04-13T07:56:51.155Z,31.7
2017-04-13T07:58:00.184Z,31.7
2017-04-13T07:58:51.984Z,31.7
2017-04-13T08:00:04.588Z,31.7
2017-04-13T08:01:09.544Z,31.7
2017-04-13T08:01:55.757Z,31.7
2017-04-13T08:02:53.280Z,31.5
2017-04-13T08:03:57.393Z,31.3
2017-04-13T08:04:50.251Z,31.2
2017-04-13T08:05:57.659Z,31
2017-04-13T08:06:56.966Z,30.8
2017-04-13T08:07:50.184Z,30.7
2017-04-13T08:08:59.945Z,30.5
2017-04-13T08:09:53.610Z,30.4
2017-04-13T08:10:57.117Z,30.2
2017-04-13T08:11:49.361Z,30.1
2017-04-13T08:12:50.102Z,30
2017-04-13T08:13:53.073Z,29.9
2017-04-13T08:14:53.336Z,29.8
2017-04-13T08:15:49.739Z,29.7
2017-04-13T08:16:49.934Z,29.6
2017-04-13T08:17:54.854Z,29.5
2017-04-13T08:18:53.855Z,29.4
2017-04-13T08:19:55.967Z,29.3
2017-04-13T08:20:51.236Z,29.2
2017-04-13T08:21:52.152Z,29.1
2017-04-13T08:22:51.280Z,29
2017-04-13T08:23:51.405Z,29
2017-04-13T08:24:51.461Z,29
2017-04-13T08:25:51.256Z,29
2017-04-13T08:26:50.383Z,29
2017-04-13T08:27:54.934Z,29
2017-04-13T08:28:46.266Z,29
2017-04-13T08:29:48.412Z,29
2017-04-13T08:30:54.322Z,29
2017-04-13T08:31:49.513Z,29
2017-04-13T08:32:46.574Z,29
2017-04-13T08:33:53.710Z,29.1
2017-04-13T08:34:48.098Z,29.1
2017-04-13T08:35:47.612Z,29.2
2017-04-13T08:36:50.082Z,29.3
2017-04-13T08:37:51.812Z,29.3
2017-04-13T08:39:05.003Z,29.4
2017-04-13T08:39:48.592Z,29.4
2017-04-13T08:40:51.897Z,29.5
2017-04-13T08:41:51.288Z,29.5
2017-04-13T08:42:47.955Z,29.4
2017-04-13T08:43:51.320Z,29.5
2017-04-13T08:44:48.032Z,29.5
2017-04-13T08:45:46.903Z,29.5
2017-04-13T08:46:46.025Z,29.5
2017-04-13T08:47:50.666Z,29.5
2017-04-13T08:48:48.678Z,29.5
2017-04-13T08:49:47.452Z,29.4
2017-04-13T08:50:48.798Z,29.4
2017-04-13T08:51:48.085Z,29.4
2017-04-13T08:52:48.743Z,29.5
2017-04-13T08:53:48.387Z,29.5
2017-04-13T08:54:46.830Z,29.5
2017-04-13T08:55:51.698Z,29.5
2017-04-13T08:56:49.879Z,29.5
2017-04-13T08:57:47.256Z,29.5
2017-04-13T08:58:48.959Z,29.5
2017-04-13T08:59:46.335Z,29.6
2017-04-13T09:00:48.344Z,29.6
2017-04-13T09:01:46.787Z,29.6
2017-04-13T09:02:49.531Z,29.6
2017-04-13T09:03:47.860Z,29.6
2017-04-13T09:04:50.477Z,29.4
2017-04-13T09:05:49.659Z,29.5
2017-04-13T09:06:50.367Z,29.5
2017-04-13T09:07:48.506Z,29.5
2017-04-13T09:08:52.787Z,29.5
2017-04-13T09:09:48.297Z,29.5
2017-04-13T09:10:49.078Z,29.4
2017-04-13T09:11:48.843Z,29.4
2017-04-13T09:12:49.595Z,29.4
2017-04-13T09:13:48.731Z,29.4
2017-04-13T09:14:51.124Z,29.3
2017-04-13T09:15:50.424Z,29.3
2017-04-13T09:16:48.073Z,29.3
2017-04-13T09:17:49.737Z,29.3
2017-04-13T09:18:56.161Z,29.3
2017-04-13T09:19:52.740Z,29.2
2017-04-13T09:20:50.457Z,29.2
2017-04-13T09:21:51.429Z,29.2
2017-04-13T09:22:50.603Z,29.2
2017-04-13T09:23:52.774Z,29.1
2017-04-13T09:24:54.131Z,29.1
2017-04-13T09:25:56.156Z,29
2017-04-13T09:26:51.689Z,29
2017-04-13T09:27:54.726Z,28.9
2017-04-13T09:28:50.074Z,28.8
2017-04-13T09:29:53.290Z,28.8
2017-04-13T09:30:50.827Z,28.7
2017-04-13T09:31:58.382Z,28.7
2017-04-13T09:32:54.456Z,28.7
2017-04-13T09:33:53.985Z,28.7
2017-04-13T09:34:57.138Z,28.6
2017-04-13T09:35:48.859Z,28.6
2017-04-13T09:36:50.220Z,28.5
2017-04-13T09:37:53.773Z,28.5
2017-04-13T09:38:49.720Z,28.5
2017-04-13T09:39:52.717Z,28.5
2017-04-13T09:40:49.871Z,28.5
2017-04-13T09:41:52.881Z,28.4
2017-04-13T09:42:52.435Z,28.5
2017-04-13T09:43:52.371Z,28.5
2017-04-13T09:44:51.216Z,28.5
2017-04-13T09:45:51.028Z,28.5
2017-04-13T09:47:01.223Z,28.5
2017-04-13T09:47:53.383Z,28.5
2017-04-13T09:48:57.325Z,28.5
2017-04-13T09:49:51.896Z,28.5
2017-04-13T09:50:52.438Z,28.5
2017-04-13T09:51:52.697Z,28.5
2017-04-13T09:52:53.578Z,28.5
2017-04-13T09:53:55.289Z,28.5
2017-04-13T09:54:51.952Z,28.5
2017-04-13T09:55:52.202Z,28.6
2017-04-13T09:56:49.776Z,28.6
2017-04-13T09:57:52.293Z,28.7
2017-04-13T09:58:51.637Z,28.8
2017-04-13T09:59:53.035Z,28.9
2017-04-13T10:00:50.544Z,29.1
2017-04-13T10:01:57.788Z,29.2
2017-04-13T10:02:52.629Z,29.4
2017-04-13T10:04:00.523Z,29.4
2017-04-13T10:04:57.351Z,29.4
2017-04-13T10:05:58.721Z,29.5
2017-04-13T10:07:10.267Z,29.5
2017-04-13T10:07:53.888Z,29.5
2017-04-13T10:09:00.597Z,29.5
2017-04-13T10:09:59.644Z,29.5
2017-04-13T10:10:53.042Z,29.4
2017-04-13T10:11:53.082Z,29.4
2017-04-13T10:12:52.909Z,29.4
2017-04-13T10:14:06.822Z,29.3
2017-04-13T10:14:59.616Z,29.4
2017-04-13T10:15:56.830Z,29.4
2017-04-13T10:16:59.540Z,29.5
2017-04-13T10:17:59.836Z,29.5
2017-04-13T10:18:52.850Z,29.4
2017-04-13T10:20:05.160Z,29.4
2017-04-13T10:21:00.850Z,29.4
2017-04-13T10:21:56.130Z,29.3
2017-04-13T10:22:52.253Z,29.4
2017-04-13T10:24:00.161Z,29.3
2017-04-13T10:25:00.158Z,29.2
2017-04-13T10:26:02.246Z,29.2
2017-04-13T10:26:59.509Z,29.2
2017-04-13T10:27:58.832Z,29.1
2017-04-13T10:28:54.318Z,29
2017-04-13T10:29:53.093Z,29
2017-04-13T10:30:54.827Z,28.9
2017-04-13T10:31:50.734Z,28.8
2017-04-13T10:32:51.206Z,28.8
2017-04-13T10:33:54.954Z,28.7
2017-04-13T10:34:51.807Z,28.6
2017-04-13T10:35:54.995Z,28.5
2017-04-13T10:36:53.996Z,28.5
2017-04-13T10:37:55.148Z,28.5
2017-04-13T10:38:55.662Z,28.4
2017-04-13T10:39:53.565Z,28.4
2017-04-13T10:40:53.365Z,28.4
2017-04-13T10:41:51.768Z,28.4
2017-04-13T10:42:56.904Z,28.3
2017-04-13T10:43:51.778Z,28.3
2017-04-13T10:44:53.632Z,28.3
2017-04-13T10:45:54.364Z,28.3
2017-04-13T10:46:53.640Z,28.2
2017-04-13T10:47:52.498Z,28.2
2017-04-13T10:48:53.757Z,28.2
2017-04-13T10:49:53.322Z,28.2
2017-04-13T10:50:52.634Z,28.2
2017-04-13T10:51:54.506Z,28.1
2017-04-13T10:52:55.288Z,28.1
2017-04-13T10:53:55.888Z,28.1
2017-04-13T10:54:55.558Z,28.1
2017-04-13T10:55:52.838Z,28.1
2017-04-13T10:56:53.603Z,28.1
2017-04-13T10:57:55.652Z,28.1
2017-04-13T10:58:57.589Z,28.2
2017-04-13T10:59:55.938Z,28.3
2017-04-13T11:00:55.976Z,28.3
2017-04-13T11:01:54.866Z,28.4
2017-04-13T11:02:56.294Z,28.5
2017-04-13T11:03:55.957Z,28.6
2017-04-13T11:04:54.715Z,28.6
2017-04-13T11:05:54.068Z,28.6
2017-04-13T11:06:55.637Z,28.7
2017-04-13T11:07:55.933Z,28.9
2017-04-13T11:09:02.144Z,29
2017-04-13T11:09:54.354Z,29.1
2017-04-13T11:10:53.231Z,29
2017-04-13T11:11:52.795Z,29
2017-04-13T11:12:56.430Z,28.9
2017-04-13T11:13:56.880Z,28.8
2017-04-13T11:14:59.232Z,28.7
2017-04-13T11:15:54.655Z,28.7
2017-04-13T11:16:53.728Z,28.6
2017-04-13T11:17:55.369Z,28.5
2017-04-13T11:18:55.247Z,28.4
2017-04-13T11:19:56.009Z,28.4
2017-04-13T11:20:53.912Z,28.3
2017-04-13T11:21:53.395Z,28.3
2017-04-13T11:22:56.331Z,28.3
2017-04-13T11:23:53.430Z,28.2
2017-04-13T11:24:53.620Z,28.2
2017-04-13T11:25:55.077Z,28.1
2017-04-13T11:26:55.296Z,28.1
2017-04-13T11:27:56.934Z,28.1
2017-04-13T11:28:53.728Z,28
2017-04-13T11:29:54.845Z,28
2017-04-13T11:30:55.136Z,28
2017-04-13T11:31:54.924Z,28
2017-04-13T11:32:56.498Z,28
2017-04-13T11:33:55.884Z,27.9
2017-04-13T11:38:20.314Z,27.9
2017-04-13T11:39:19.440Z,27.8
2017-04-13T11:40:18.745Z,27.9
2017-04-13T11:41:22.784Z,27.8
2017-04-13T11:42:21.322Z,27.9
2017-04-13T11:43:19.049Z,28
2017-04-13T11:44:21.343Z,28
2017-04-13T11:45:21.673Z,28.1
2017-04-13T11:46:20.926Z,28.2
2017-04-13T11:47:22.327Z,28.3
2017-04-13T11:48:21.786Z,28.5
2017-04-13T11:49:20.944Z,28.6
2017-04-13T11:50:21.576Z,28.6
2017-04-13T11:51:21.245Z,28.6
2017-04-13T11:52:21.074Z,28.7
2017-04-13T11:53:21.328Z,28.9
2017-04-13T11:54:20.436Z,29
2017-04-13T11:55:21.394Z,29
2017-04-13T11:56:19.646Z,29.2
2017-04-13T11:57:19.873Z,29.3
2017-04-13T11:58:19.714Z,29.3
2017-04-13T11:59:19.903Z,29.2
2017-04-13T12:00:20.577Z,29.2
2017-04-13T12:01:21.348Z,29.1
2017-04-13T12:02:21.495Z,29
2017-04-13T12:03:20.377Z,28.9
2017-04-13T12:04:20.114Z,28.8
2017-04-13T12:05:23.702Z,28.7
2017-04-13T12:06:21.224Z,28.6
2017-04-13T12:07:21.137Z,28.6
2017-04-13T12:08:21.080Z,28.5
2017-04-13T12:09:20.683Z,28.4
2017-04-13T12:10:20.325Z,28.4
2017-04-13T12:11:20.283Z,28.3
2017-04-13T12:12:23.090Z,28.2
2017-04-13T12:13:22.079Z,28.2
2017-04-13T12:14:22.963Z,28.1
2017-04-13T12:15:23.314Z,28.1
2017-04-13T12:16:21.792Z,28.1
2017-04-13T12:17:22.821Z,28.1
2017-04-13T12:18:24.630Z,28.2
2017-04-13T12:19:23.204Z,28.2
2017-04-13T12:20:22.808Z,28.2
2017-04-13T12:21:23.474Z,28.2
2017-04-13T12:22:23.307Z,28.2
2017-04-13T12:23:22.821Z,28.3
2017-04-13T12:24:21.754Z,28.3
2017-04-13T12:25:25.148Z,28.3
2017-04-13T12:26:23.621Z,28.3
2017-04-13T12:27:22.643Z,28.3
2017-04-13T12:28:25.529Z,28.3
2017-04-13T12:29:21.373Z,28.3
2017-04-13T12:30:22.717Z,28.3
2017-04-13T12:31:24.458Z,28.3
2017-04-13T12:32:25.264Z,28.3
2017-04-13T12:33:22.499Z,28.4
2017-04-13T12:34:26.684Z,28.5
2017-04-13T12:35:27.051Z,28.6
2017-04-13T12:36:28.268Z,28.6
2017-04-13T12:37:26.739Z,28.6
2017-04-13T12:38:26.915Z,28.6
2017-04-13T12:39:26.591Z,28.5
2017-04-13T12:40:25.876Z,28.5
2017-04-13T12:41:27.504Z,28.5
2017-04-13T12:42:25.261Z,28.4
2017-04-13T12:43:28.587Z,28.4
2017-04-13T12:44:28.156Z,28.3
2017-04-13T12:45:28.650Z,28.2
2017-04-13T12:46:33.219Z,28.1
2017-04-13T12:47:29.255Z,28
2017-04-13T12:48:29.188Z,28
2017-04-13T12:49:32.053Z,27.9
2017-04-13T12:50:26.721Z,27.8
2017-04-13T12:51:26.094Z,27.8
2017-04-13T12:52:30.193Z,27.8
2017-04-13T12:53:26.823Z,27.7
2017-04-13T12:54:25.405Z,27.7
2017-04-13T12:55:30.447Z,27.7
2017-04-13T12:56:27.493Z,27.7
2017-04-13T12:57:25.365Z,27.7
2017-04-13T12:58:23.670Z,27.7
2017-04-13T12:59:29.691Z,27.8
2017-04-13T13:00:25.419Z,27.8
2017-04-13T13:01:25.680Z,27.8
2017-04-13T13:02:27.715Z,27.7
2017-04-13T13:03:25.008Z,27.7
2017-04-13T13:04:27.779Z,27.7
2017-04-13T13:05:25.457Z,27.7
2017-04-13T13:06:23.586Z,27.6
2017-04-13T13:07:28.703Z,27.6
2017-04-13T13:08:34.154Z,27.7
2017-04-13T13:09:28.175Z,27.7
2017-04-13T13:10:26.903Z,27.7
2017-04-13T13:11:30.250Z,27.7
2017-04-13T13:12:26.904Z,27.8
2017-04-13T13:13:25.401Z,28.4
2017-04-13T13:14:27.740Z,29.4
2017-04-13T13:15:28.996Z,29.8
2017-04-13T13:16:33.313Z,29.8
2017-04-13T13:17:27.179Z,29.8
2017-04-13T13:18:26.202Z,29.6
2017-04-13T13:19:24.930Z,29.5
2017-04-13T13:20:27.563Z,29.4
2017-04-13T13:21:24.006Z,29.3
2017-04-13T13:22:26.936Z,29.1
2017-04-13T13:23:24.225Z,29.1
2017-04-13T13:24:24.181Z,29
2017-04-13T13:25:27.327Z,28.9
2017-04-13T13:26:24.788Z,28.8
2017-04-13T13:27:25.992Z,28.7
2017-04-13T13:28:24.905Z,28.6
2017-04-13T13:29:27.353Z,28.5
2017-04-13T13:30:24.482Z,28.5
2017-04-13T13:31:26.203Z,28.4
2017-04-13T13:32:26.700Z,28.4
2017-04-13T13:33:26.060Z,28.4
2017-04-13T13:34:28.213Z,28.5
2017-04-13T13:35:27.301Z,28.6